createdAt,value
2017-08-01T00:01:20.429Z,31.80
2017-08-01T00:03:51.368Z,31.60
2017-08-01T00:06:20.554Z,31.80
2017-08-01T00:08:49.915Z,31.70
2017-08-01T00:11:19.306Z,31.60
2017-08-01T00:13:48.413Z,31.60
2017-08-01T00:16:17.806Z,31.70
2017-08-01T00:18:47.276Z,31.60
2017-08-01T00:21:16.641Z,31.40
2017-08-01T00:23:46.081Z,31.50
2017-08-01T00:26:15.693Z,31.60
2017-08-01T00:28:45.097Z,31.70
2017-08-01T00:31:14.187Z,31.70
2017-08-01T00:33:43.831Z,31.60
2017-08-01T00:36:12.682Z,31.50
2017-08-01T00:38:41.780Z,31.50
2017-08-01T00:41:11.184Z,31.50
2017-08-01T00:43:40.991Z,31.50
2017-08-01T00:46:10.713Z,31.50
2017-08-01T00:48:40.306Z,31.50
2017-08-01T00:51:17.347Z,31.50
2017-08-01T00:53:46.901Z,31.60
2017-08-01T00:56:16.420Z,31.50
2017-08-01T00:58:47.319Z,31.40
2017-08-01T01:03:56.218Z,31.30
2017-08-01T01:06:25.536Z,31.20
2017-08-01T01:08:54.988Z,31.20
2017-08-01T01:11:24.456Z,31.20
2017-08-01T01:13:53.775Z,31.20
2017-08-01T01:16:23.204Z,31.20
2017-08-01T01:18:52.384Z,31.10
2017-08-01T01:21:22.000Z,30.90
2017-08-01T01:23:51.201Z,30.90
2017-08-01T01:26:21.237Z,30.90
2017-08-01T01:28:50.735Z,30.80
2017-08-01T01:31:20.841Z,30.70
2017-08-01T01:33:50.189Z,30.70
2017-08-01T01:36:19.338Z,30.70
2017-08-01T01:38:48.704Z,30.60
2017-08-01T01:41:18.243Z,30.60
2017-08-01T01:43:47.453Z,30.60
2017-08-01T01:46:16.743Z,30.50
2017-08-01T01:48:46.435Z,30.40
2017-08-01T01:51:15.746Z,30.30
2017-08-01T01:53:44.879Z,30.30
2017-08-01T01:56:14.795Z,30.30
2017-08-01T01:58:44.240Z,30.20
2017-08-01T02:01:13.677Z,30.10
2017-08-01T02:03:43.140Z,30.10
2017-08-01T02:06:13.301Z,30.20
2017-08-01T02:08:42.363Z,30.20
2017-08-01T02:11:11.670Z,30.20
2017-08-01T02:13:41.085Z,30.10
2017-08-01T02:16:10.198Z,30.00
2017-08-01T02:18:39.626Z,29.80
2017-08-01T02:21:08.904Z,29.80
2017-08-01T02:23:38.125Z,29.80
2017-08-01T02:26:08.386Z,29.70
2017-08-01T02:28:37.486Z,29.60
2017-08-01T02:31:06.708Z,29.60
2017-08-01T02:33:35.876Z,29.50
2017-08-01T02:36:05.261Z,29.40
2017-08-01T02:38:34.644Z,29.40
2017-08-01T02:41:03.914Z,29.30
2017-08-01T02:43:33.230Z,29.20
2017-08-01T02:46:02.208Z,29.20
2017-08-01T02:48:31.392Z,29.00
2017-08-01T02:51:00.626Z,29.00
2017-08-01T02:53:29.928Z,28.90
2017-08-01T02:55:59.145Z,28.90
2017-08-01T02:58:28.510Z,28.80
2017-08-01T03:00:57.936Z,28.80
2017-08-01T03:03:28.391Z,28.70
2017-08-01T03:05:57.481Z,28.60
2017-08-01T03:08:27.818Z,28.60
2017-08-01T03:10:57.253Z,28.50
2017-08-01T03:13:27.838Z,28.40
2017-08-01T03:15:57.197Z,28.30
2017-08-01T03:18:26.246Z,28.20
2017-08-01T03:20:55.629Z,28.00
2017-08-01T03:23:25.006Z,28.00
2017-08-01T03:25:54.313Z,27.80
2017-08-01T03:28:23.428Z,27.70
2017-08-01T03:30:52.959Z,27.70
2017-08-01T03:33:22.353Z,27.60
2017-08-01T03:35:51.769Z,27.50
2017-08-01T03:38:21.364Z,27.50
2017-08-01T03:40:50.893Z,27.40
2017-08-01T03:43:20.141Z,27.30
2017-08-01T03:45:49.483Z,27.20
2017-08-01T03:48:18.583Z,27.10
2017-08-01T03:50:48.054Z,27.10
2017-08-01T03:53:17.700Z,27.00
2017-08-01T03:55:46.851Z,27.00
2017-08-01T03:58:17.588Z,26.90
2017-08-01T04:00:46.976Z,26.80
2017-08-01T04:03:18.110Z,26.70
2017-08-01T04:05:47.703Z,26.60
2017-08-01T04:08:16.923Z,26.60
2017-08-01T04:10:48.104Z,26.50
2017-08-01T04:13:17.691Z,26.50
2017-08-01T04:15:47.547Z,26.40
2017-08-01T04:18:16.969Z,26.30
2017-08-01T04:20:47.077Z,26.20
2017-08-01T04:23:16.340Z,26.20
2017-08-01T04:25:45.966Z,26.10
2017-08-01T04:28:15.201Z,26.00
2017-08-01T04:30:44.293Z,26.00
2017-08-01T04:33:13.415Z,26.00
2017-08-01T04:35:42.593Z,26.00
2017-08-01T04:38:11.989Z,25.80
2017-08-01T04:40:41.191Z,25.70
2017-08-01T04:43:10.035Z,25.70
2017-08-01T04:45:39.334Z,25.70
2017-08-01T04:48:10.006Z,25.60
2017-08-01T04:50:39.682Z,25.60
2017-08-01T04:53:09.167Z,25.50
2017-08-01T04:55:38.772Z,25.50
2017-08-01T04:58:07.901Z,25.40
2017-08-01T05:00:37.333Z,25.30
2017-08-01T05:03:06.625Z,25.30
2017-08-01T05:05:35.822Z,25.20
2017-08-01T05:08:04.960Z,25.10
2017-08-01T05:10:34.338Z,25.00
2017-08-01T05:13:05.282Z,25.00
2017-08-01T05:15:34.981Z,24.90
2017-08-01T05:18:04.267Z,24.90
2017-08-01T05:20:33.634Z,24.80
2017-08-01T05:23:02.854Z,24.80
2017-08-01T05:25:31.979Z,24.70
2017-08-01T05:28:01.727Z,24.70
2017-08-01T05:30:30.971Z,24.70
2017-08-01T05:33:00.706Z,24.60
2017-08-01T05:35:29.820Z,24.60
2017-08-01T05:37:58.901Z,24.50
2017-08-01T05:40:28.335Z,24.40
2017-08-01T05:42:58.009Z,24.30
2017-08-01T05:45:27.971Z,24.30
2017-08-01T05:47:57.369Z,24.20
2017-08-01T05:50:28.064Z,24.20
2017-08-01T05:52:57.517Z,24.20
2017-08-01T05:55:26.652Z,24.20
2017-08-01T05:57:56.214Z,24.10
2017-08-01T06:00:25.439Z,24.10
2017-08-01T06:02:54.461Z,24.10
2017-08-01T06:05:23.698Z,24.00
2017-08-01T06:07:53.115Z,24.00
2017-08-01T06:10:22.629Z,24.00
2017-08-01T06:12:51.925Z,23.90
2017-08-01T06:15:22.721Z,23.90
2017-08-01T06:17:52.167Z,23.80
2017-08-01T06:20:21.579Z,23.80
2017-08-01T06:22:50.734Z,23.80
2017-08-01T06:25:20.004Z,23.70
2017-08-01T06:27:49.357Z,23.60
2017-08-01T06:30:19.009Z,23.60
2017-08-01T06:32:48.359Z,23.50
2017-08-01T06:35:17.581Z,23.50
2017-08-01T06:37:47.026Z,23.30
2017-08-01T06:40:16.256Z,23.30
2017-08-01T06:42:45.702Z,23.30
2017-08-01T06:45:15.120Z,23.30
2017-08-01T06:47:44.315Z,23.30
2017-08-01T06:50:13.748Z,23.20
2017-08-01T06:52:42.944Z,23.10
2017-08-01T06:55:12.567Z,23.10
2017-08-01T06:57:41.688Z,23.10
2017-08-01T07:00:11.031Z,23.00
2017-08-01T07:02:40.501Z,23.00
2017-08-01T07:05:09.863Z,22.90
2017-08-01T07:07:39.454Z,22.90
2017-08-01T07:10:08.960Z,22.80
2017-08-01T07:12:39.600Z,22.80
2017-08-01T07:15:09.005Z,22.70
2017-08-01T07:17:39.559Z,22.80
2017-08-01T07:20:10.015Z,22.60
2017-08-01T07:22:39.715Z,22.60
2017-08-01T07:25:09.003Z,22.60
2017-08-01T07:27:38.197Z,22.60
2017-08-01T07:30:07.543Z,22.40
2017-08-01T07:32:36.786Z,22.30
2017-08-01T07:35:16.267Z,22.10
2017-08-01T07:37:45.653Z,22.10
2017-08-01T07:40:16.105Z,22.00
2017-08-01T07:42:47.493Z,22.00
2017-08-01T07:45:16.755Z,21.90
2017-08-01T07:47:46.177Z,21.90
2017-08-01T07:50:15.592Z,21.90
2017-08-01T07:52:45.913Z,21.80
2017-08-01T07:55:15.129Z,21.80
2017-08-01T07:57:44.254Z,21.70
2017-08-01T08:00:13.524Z,21.70
2017-08-01T08:02:43.080Z,21.70
2017-08-01T08:05:12.659Z,21.60
2017-08-01T08:07:41.924Z,21.50
2017-08-01T08:10:12.064Z,21.50
2017-08-01T08:12:42.373Z,21.40
2017-08-01T08:15:11.617Z,21.30
2017-08-01T08:17:41.562Z,21.20
2017-08-01T08:20:10.714Z,21.10
2017-08-01T08:22:39.965Z,21.10
2017-08-01T08:25:09.409Z,21.00
2017-08-01T08:27:39.719Z,20.90
2017-08-01T08:30:09.008Z,20.90
2017-08-01T08:32:38.084Z,20.90
2017-08-01T08:35:07.399Z,20.90
2017-08-01T08:37:36.651Z,20.90
2017-08-01T08:40:06.051Z,20.90
2017-08-01T08:42:35.423Z,20.90
2017-08-01T08:45:04.654Z,20.90
2017-08-01T08:47:34.107Z,20.80
2017-08-01T08:50:03.308Z,20.80
2017-08-01T08:52:32.615Z,20.70
2017-08-01T08:55:01.743Z,20.70
2017-08-01T08:57:31.088Z,20.60
2017-08-01T09:00:00.359Z,20.60
2017-08-01T09:02:29.828Z,20.50
2017-08-01T09:04:59.714Z,20.40
2017-08-01T09:07:29.180Z,20.40
2017-08-01T09:09:58.185Z,20.30
2017-08-01T09:12:27.573Z,20.20
2017-08-01T09:14:56.852Z,20.20
2017-08-01T09:17:26.281Z,20.00
2017-08-01T09:19:56.357Z,20.00
2017-08-01T09:22:25.651Z,19.90
2017-08-01T09:24:55.070Z,19.90
2017-08-01T09:27:24.378Z,19.90
2017-08-01T09:29:54.616Z,19.70
2017-08-01T09:32:24.645Z,19.70
2017-08-01T09:34:53.942Z,19.60
2017-08-01T09:37:23.280Z,19.60
2017-08-01T09:39:52.629Z,19.60
2017-08-01T09:42:21.970Z,19.60
2017-08-01T09:44:51.095Z,19.60
2017-08-01T09:47:20.238Z,19.50
2017-08-01T09:49:49.492Z,19.50
2017-08-01T09:52:18.678Z,19.40
2017-08-01T09:54:47.941Z,19.40
2017-08-01T09:57:16.983Z,19.30
2017-08-01T09:59:46.160Z,19.30
2017-08-01T10:02:15.572Z,19.30
2017-08-01T10:04:44.654Z,19.20
2017-08-01T10:07:13.770Z,19.20
2017-08-01T10:09:43.256Z,19.10
2017-08-01T10:12:12.350Z,19.00
2017-08-01T10:14:41.760Z,19.00
2017-08-01T10:17:10.960Z,18.90
2017-08-01T10:19:40.147Z,18.80
2017-08-01T10:22:17.599Z,18.80
2017-08-01T10:24:47.749Z,18.70
2017-08-01T10:27:17.062Z,18.70
2017-08-01T10:29:46.572Z,18.60
2017-08-01T10:32:15.969Z,18.60
2017-08-01T10:34:45.261Z,18.60
2017-08-01T10:37:14.636Z,18.50
2017-08-01T10:39:43.821Z,18.50
2017-08-01T10:42:13.015Z,18.60
2017-08-01T10:44:42.324Z,18.50
2017-08-01T10:47:11.133Z,18.40
2017-08-01T10:49:40.285Z,18.40
2017-08-01T10:52:09.537Z,18.40
2017-08-01T10:54:38.725Z,18.40
2017-08-01T10:57:08.054Z,18.30
2017-08-01T10:59:37.475Z,18.20
2017-08-01T11:02:06.531Z,18.20
2017-08-01T11:04:35.979Z,18.10
2017-08-01T11:07:05.305Z,18.00
2017-08-01T11:09:35.385Z,17.90
2017-08-01T11:12:04.543Z,17.90
2017-08-01T11:14:34.772Z,17.80
2017-08-01T11:17:03.694Z,17.80
2017-08-01T11:19:32.901Z,17.70
2017-08-01T11:22:02.119Z,17.70
2017-08-01T11:24:32.044Z,17.70
2017-08-01T11:27:01.492Z,17.60
2017-08-01T11:29:30.741Z,17.60
2017-08-01T11:32:00.071Z,17.50
2017-08-01T11:34:29.343Z,17.50
2017-08-01T11:36:58.407Z,17.40
2017-08-01T11:39:27.585Z,17.30
2017-08-01T11:41:56.832Z,17.30
2017-08-01T11:44:26.361Z,17.30
2017-08-01T11:46:55.489Z,17.20
2017-08-01T11:49:24.601Z,17.20
2017-08-01T11:51:54.203Z,17.20
2017-08-01T11:54:23.468Z,17.00
2017-08-01T11:56:52.822Z,17.00
2017-08-01T11:59:22.127Z,17.00
2017-08-01T12:01:51.431Z,16.90
2017-08-01T12:04:20.766Z,17.00
2017-08-01T12:06:50.106Z,17.00
2017-08-01T12:09:19.310Z,16.90
2017-08-01T12:11:48.673Z,16.90
2017-08-01T12:14:18.615Z,16.90
2017-08-01T12:16:47.853Z,16.80
2017-08-01T12:19:17.294Z,16.90
2017-08-01T12:21:46.335Z,16.80
2017-08-01T12:24:15.451Z,16.90
2017-08-01T12:26:46.170Z,16.90
2017-08-01T12:29:15.591Z,16.90
2017-08-01T12:31:44.960Z,16.90
2017-08-01T12:34:14.243Z,17.00
2017-08-01T12:36:43.327Z,16.90
2017-08-01T12:39:12.661Z,16.90
2017-08-01T12:41:42.039Z,16.80
2017-08-01T12:44:11.626Z,16.70
2017-08-01T12:46:41.156Z,16.70
2017-08-01T12:49:10.495Z,16.60
2017-08-01T12:51:39.749Z,16.60
2017-08-01T12:54:09.127Z,16.50
2017-08-01T12:56:38.369Z,16.40
2017-08-01T12:59:07.860Z,16.30
2017-08-01T13:01:37.155Z,16.30
2017-08-01T13:04:06.456Z,16.20
2017-08-01T13:06:35.743Z,16.20
2017-08-01T13:09:06.745Z,16.20
2017-08-01T13:11:36.086Z,16.10
2017-08-01T13:14:05.125Z,16.20
2017-08-01T13:16:34.629Z,16.10
2017-08-01T13:19:03.750Z,16.20
2017-08-01T13:21:33.538Z,16.20
2017-08-01T13:24:03.048Z,16.10
2017-08-01T13:26:32.371Z,16.20
2017-08-01T13:29:03.128Z,16.30
2017-08-01T13:31:32.889Z,16.30
2017-08-01T13:34:01.977Z,16.40
2017-08-01T13:36:31.250Z,16.40
2017-08-01T13:39:00.658Z,16.40
2017-08-01T13:41:31.299Z,16.50
2017-08-01T13:44:00.819Z,16.60
2017-08-01T13:46:30.112Z,16.70
2017-08-01T13:48:59.364Z,16.80
2017-08-01T13:51:29.875Z,17.00
2017-08-01T13:53:59.214Z,16.90
2017-08-01T13:56:29.376Z,17.20
2017-08-01T13:58:58.993Z,17.20
2017-08-01T14:01:28.203Z,17.40
2017-08-01T14:03:57.830Z,17.50
2017-08-01T14:06:27.471Z,17.60
2017-08-01T14:08:57.390Z,17.80
2017-08-01T14:11:26.934Z,17.90
2017-08-01T14:13:56.194Z,18.10
2017-08-01T14:16:25.854Z,18.20
2017-08-01T14:18:55.196Z,18.40
2017-08-01T14:21:24.593Z,18.50
2017-08-01T14:23:53.823Z,18.70
2017-08-01T14:26:23.101Z,18.80
2017-08-01T14:28:52.242Z,18.90
2017-08-01T14:31:22.903Z,19.00
2017-08-01T14:33:59.412Z,19.10
2017-08-01T14:36:28.845Z,19.20
2017-08-01T14:38:58.127Z,19.40
2017-08-01T14:41:27.385Z,19.40
2017-08-01T14:43:56.803Z,19.50
2017-08-01T14:46:26.304Z,19.50
2017-08-01T14:48:55.538Z,19.60
2017-08-01T14:51:24.796Z,19.80
2017-08-01T14:53:53.476Z,19.90
2017-08-01T14:56:22.126Z,20.00
2017-08-01T14:58:51.718Z,20.10
2017-08-01T15:01:20.442Z,20.20
2017-08-01T15:03:49.630Z,20.30
2017-08-01T15:06:18.894Z,20.30
2017-08-01T15:08:48.340Z,20.40
2017-08-01T15:11:17.528Z,20.50
2017-08-01T15:13:46.744Z,20.70
2017-08-01T15:16:15.817Z,20.90
2017-08-01T15:18:45.072Z,21.10
2017-08-01T15:21:14.272Z,21.30
2017-08-01T15:23:43.611Z,21.80
2017-08-01T15:26:12.913Z,23.00
2017-08-01T15:28:42.758Z,25.10
2017-08-01T15:31:12.917Z,28.90
2017-08-01T15:33:43.264Z,28.70
2017-08-01T15:36:12.296Z,31.00
2017-08-01T15:38:41.350Z,33.30
2017-08-01T15:41:11.039Z,35.20
2017-08-01T15:43:40.343Z,36.00
2017-08-01T15:46:09.537Z,36.90
2017-08-01T15:48:38.819Z,37.40
2017-08-01T15:51:08.190Z,36.80
2017-08-01T15:53:37.165Z,37.00
2017-08-01T15:56:06.758Z,38.80
2017-08-01T15:58:36.310Z,39.40
2017-08-01T16:01:05.737Z,40.60
2017-08-01T16:03:35.095Z,40.00
2017-08-01T16:06:04.320Z,40.80
2017-08-01T16:08:33.650Z,42.40
2017-08-01T16:11:03.185Z,42.90
2017-08-01T16:13:32.592Z,43.40
2017-08-01T16:16:01.817Z,43.50
2017-08-01T16:18:31.393Z,42.80
2017-08-01T16:21:00.872Z,41.80
2017-08-01T16:23:30.078Z,42.90
2017-08-01T16:25:59.296Z,42.00
2017-08-01T16:28:28.633Z,42.20
2017-08-01T16:30:57.842Z,42.80
2017-08-01T16:33:27.220Z,43.50
2017-08-01T16:35:57.834Z,42.60
2017-08-01T16:38:27.393Z,41.60
2017-08-01T16:40:56.827Z,41.50
2017-08-01T16:43:25.857Z,41.70
2017-08-01T16:45:55.193Z,42.80
2017-08-01T16:48:24.540Z,44.00
2017-08-01T16:50:53.954Z,43.80
2017-08-01T16:53:23.111Z,45.30
2017-08-01T16:55:52.437Z,46.10
2017-08-01T16:58:21.606Z,46.20
2017-08-01T17:00:51.077Z,46.70
2017-08-01T17:03:20.329Z,44.40
2017-08-01T17:05:49.741Z,43.40
2017-08-01T17:08:19.097Z,44.20
2017-08-01T17:10:49.368Z,43.80
2017-08-01T17:13:18.513Z,43.80
2017-08-01T17:15:48.024Z,43.00
2017-08-01T17:18:17.442Z,43.50
2017-08-01T17:20:46.681Z,43.90
2017-08-01T17:23:16.118Z,43.70
2017-08-01T17:25:46.970Z,45.20
2017-08-01T17:28:16.142Z,45.10
2017-08-01T17:30:45.195Z,44.50
2017-08-01T17:33:14.596Z,44.20
2017-08-01T17:35:43.737Z,44.20
2017-08-01T17:38:13.796Z,44.90
2017-08-01T17:40:43.046Z,43.90
2017-08-01T17:43:12.428Z,44.90
2017-08-01T17:45:41.611Z,44.90
2017-08-01T17:48:10.816Z,45.10
2017-08-01T17:50:40.377Z,43.50
2017-08-01T17:53:09.716Z,43.60
2017-08-01T17:55:38.697Z,44.80
2017-08-01T17:58:07.911Z,43.70
2017-08-01T18:00:37.212Z,43.60
2017-08-01T18:03:06.298Z,44.80
2017-08-01T18:05:35.732Z,43.90
2017-08-01T18:08:04.848Z,44.10
2017-08-01T18:10:34.795Z,43.60
2017-08-01T18:13:03.953Z,42.00
2017-08-01T18:15:33.299Z,41.60
2017-08-01T18:18:02.421Z,41.80
2017-08-01T18:20:31.526Z,41.80
2017-08-01T18:23:00.704Z,41.50
2017-08-01T18:25:30.087Z,41.80
2017-08-01T18:27:59.256Z,42.90
2017-08-01T18:30:28.283Z,43.80
2017-08-01T18:32:57.654Z,43.20
2017-08-01T18:35:26.798Z,42.90
2017-08-01T18:37:55.905Z,43.40
2017-08-01T18:40:25.993Z,43.60
2017-08-01T18:42:55.400Z,44.20
2017-08-01T18:45:28.171Z,43.30
2017-08-01T18:47:57.479Z,43.50
2017-08-01T18:50:26.920Z,43.50
2017-08-01T18:52:56.142Z,44.30
2017-08-01T18:55:25.562Z,44.10
2017-08-01T18:57:55.115Z,43.20
2017-08-01T19:00:24.314Z,43.00
2017-08-01T19:02:55.076Z,42.60
2017-08-01T19:05:24.175Z,42.40
2017-08-01T19:07:53.439Z,42.00
2017-08-01T19:10:23.076Z,42.50
2017-08-01T19:12:52.458Z,43.20
2017-08-01T19:15:21.788Z,42.50
2017-08-01T19:17:51.083Z,43.10
2017-08-01T19:20:20.873Z,43.00
2017-08-01T19:22:50.362Z,43.10
2017-08-01T19:25:19.930Z,43.60
2017-08-01T19:27:49.322Z,42.50
2017-08-01T19:30:18.862Z,42.40
2017-08-01T19:32:50.154Z,42.10
2017-08-01T19:35:19.424Z,41.80
2017-08-01T19:37:48.873Z,41.40
2017-08-01T19:40:18.637Z,41.80
2017-08-01T19:42:48.859Z,42.20
2017-08-01T19:45:18.184Z,42.20
2017-08-01T19:47:47.467Z,41.70
2017-08-01T19:50:17.366Z,41.70
2017-08-01T19:52:47.973Z,41.40
2017-08-01T19:55:18.205Z,40.80
2017-08-01T19:57:48.931Z,40.40
2017-08-01T20:00:18.544Z,40.30
2017-08-01T20:02:49.065Z,38.60
2017-08-01T20:05:18.251Z,38.50
2017-08-01T20:07:48.511Z,37.80
2017-08-01T20:10:17.810Z,37.10
2017-08-01T20:12:47.315Z,36.90
2017-08-01T20:15:16.801Z,36.20
2017-08-01T20:17:45.766Z,35.50
2017-08-01T20:20:15.137Z,35.10
2017-08-01T20:22:44.461Z,34.50
2017-08-01T20:25:13.766Z,34.00
2017-08-01T20:27:43.023Z,33.60
2017-08-01T20:30:12.142Z,33.70
2017-08-01T20:32:41.565Z,33.60
2017-08-01T20:35:10.812Z,33.50
2017-08-01T20:37:40.211Z,33.40
2017-08-01T20:40:09.573Z,33.60
2017-08-01T20:42:38.823Z,33.60
2017-08-01T20:45:08.861Z,33.60
2017-08-01T20:47:38.091Z,33.80
2017-08-01T20:50:07.358Z,33.80
2017-08-01T20:52:36.724Z,33.80
2017-08-01T20:55:06.698Z,33.80
2017-08-01T20:57:35.779Z,33.70
2017-08-01T21:00:05.274Z,33.60
2017-08-01T21:02:34.356Z,33.50
2017-08-01T21:05:03.566Z,33.70
2017-08-01T21:07:32.685Z,33.50
2017-08-01T21:10:01.902Z,33.50
2017-08-01T21:12:31.065Z,33.50
2017-08-01T21:15:00.709Z,33.20
2017-08-01T21:17:30.640Z,33.30
2017-08-01T21:19:59.840Z,33.40
2017-08-01T21:22:29.231Z,33.60
2017-08-01T21:24:58.577Z,33.50
2017-08-01T21:27:27.765Z,33.30
2017-08-01T21:29:57.352Z,33.40
2017-08-01T21:32:27.501Z,33.30
2017-08-01T21:34:57.185Z,33.30
2017-08-01T21:37:26.952Z,33.40
2017-08-01T21:39:56.019Z,33.40
2017-08-01T21:42:25.402Z,33.50
2017-08-01T21:44:54.841Z,33.60
2017-08-01T21:47:25.736Z,33.60
2017-08-01T21:49:55.069Z,33.60
2017-08-01T21:52:24.369Z,33.80
2017-08-01T21:54:54.967Z,33.80
2017-08-01T21:57:24.635Z,33.80
2017-08-01T21:59:54.139Z,33.80
2017-08-01T22:02:23.043Z,33.80
2017-08-01T22:04:52.162Z,33.80
2017-08-01T22:07:21.673Z,34.00
2017-08-01T22:09:51.025Z,34.10
2017-08-01T22:12:20.411Z,34.00
2017-08-01T22:14:49.814Z,34.10
2017-08-01T22:17:19.062Z,34.00
2017-08-01T22:19:48.356Z,33.90
2017-08-01T22:22:17.722Z,34.10
2017-08-01T22:24:46.930Z,34.20
2017-08-01T22:27:16.372Z,34.00
2017-08-01T22:29:45.481Z,34.00
2017-08-01T22:32:14.743Z,34.10
2017-08-01T22:34:43.959Z,34.20
2017-08-01T22:37:13.196Z,34.20
2017-08-01T22:39:42.616Z,34.30
2017-08-01T22:42:11.888Z,34.50
2017-08-01T22:44:42.229Z,34.70
2017-08-01T22:47:11.645Z,34.70
2017-08-01T22:49:41.789Z,34.60
2017-08-01T22:52:10.896Z,34.40
2017-08-01T22:54:39.975Z,34.40
2017-08-01T22:57:09.592Z,34.50
2017-08-01T22:59:38.753Z,34.50
2017-08-01T23:02:08.183Z,34.40
2017-08-01T23:04:37.759Z,34.30
2017-08-01T23:07:07.221Z,34.30
2017-08-01T23:09:36.539Z,34.30
2017-08-01T23:12:06.503Z,34.40
2017-08-01T23:14:35.580Z,34.40
2017-08-01T23:17:05.316Z,34.50
2017-08-01T23:19:34.768Z,34.50
2017-08-01T23:22:03.969Z,34.60
2017-08-01T23:24:34.006Z,34.60
2017-08-01T23:27:03.323Z,34.50
2017-08-01T23:29:32.467Z,34.60
2017-08-01T23:32:01.770Z,34.60
2017-08-01T23:34:31.089Z,34.70
2017-08-01T23:37:01.243Z,34.70
2017-08-01T23:39:30.577Z,34.60
2017-08-01T23:41:59.828Z,34.70
2017-08-01T23:44:29.504Z,34.80
2017-08-01T23:46:59.823Z,34.80
2017-08-01T23:49:28.932Z,34.90
2017-08-01T23:51:58.730Z,34.90
2017-08-01T23:54:27.940Z,34.90
2017-08-01T23:56:57.189Z,34.70
2017-08-01T23:59:26.633Z,34.70
